Time;durP1;ratioP1;P1;durP2;ratioP2;P2;SDS_P1;SDS_P2;PMS_P1;PMS_P2;Temp;Humidity;BMP_temperature;BMP_pressure;BME280_temperature;BME280_humidity;BME280_pressure;Samples;Min_cycle;Max_cycle;Signal;HPM_P1;HPM_P2
2022/08/27 00:00:12;;;;;;;2.17;2.08;;;20.90;99.90;;;;;;5063308;28;20227;-67
2022/08/27 00:02:39;;;;;;;2.10;1.93;;;20.90;99.90;;;;;;5065883;28;20217;-66
2022/08/27 00:05:06;;;;;;;2.05;1.95;;;20.90;99.90;;;;;;5067460;28;20584;-67
2022/08/27 00:07:33;;;;;;;2.00;1.90;;;20.90;99.90;;;;;;5067497;28;20202;-67
2022/08/27 00:10:00;;;;;;;1.90;1.80;;;21.00;99.90;;;;;;5068400;28;20309;-66
2022/08/27 00:12:27;;;;;;;1.95;1.85;;;21.00;99.90;;;;;;5064219;28;20318;-65
2022/08/27 00:14:54;;;;;;;1.90;1.80;;;21.00;99.90;;;;;;5040618;28;20210;-66
2022/08/27 00:17:22;;;;;;;1.93;1.80;;;21.00;99.90;;;;;;5049160;28;20366;-66
2022/08/27 00:19:49;;;;;;;2.00;1.90;;;21.00;99.90;;;;;;5036511;28;20228;-67
2022/08/27 00:22:16;;;;;;;2.10;2.00;;;21.00;99.90;;;;;;5051172;28;20277;-65
2022/08/27 00:24:43;;;;;;;2.10;2.00;;;21.00;99.90;;;;;;5048757;28;20214;-67
2022/08/27 00:27:09;;;;;;;1.90;1.80;;;21.00;99.90;;;;;;5043937;28;20213;-67
2022/08/27 00:29:36;;;;;;;2.00;1.90;;;21.00;99.90;;;;;;5053937;28;20309;-66
2022/08/27 00:32:04;;;;;;;1.93;1.83;;;21.00;99.90;;;;;;5047635;28;20235;-66
2022/08/27 00:34:32;;;;;;;2.30;2.20;;;21.00;99.90;;;;;;5041970;28;20215;-64
2022/08/27 00:36:59;;;;;;;2.00;1.90;;;21.00;99.90;;;;;;5050524;28;20636;-65
2022/08/27 00:39:26;;;;;;;2.10;2.00;;;21.10;99.90;;;;;;5044924;28;20592;-65
2022/08/27 00:41:53;;;;;;;2.00;1.90;;;21.10;99.90;;;;;;5043997;28;20203;-64
2022/08/27 00:44:20;;;;;;;2.03;1.92;;;21.10;99.90;;;;;;5053024;28;20208;-65
2022/08/27 00:46:49;;;;;;;2.00;1.90;;;21.10;99.90;;;;;;5056806;28;20267;-66
2022/08/27 00:49:19;;;;;;;1.90;1.80;;;21.10;99.90;;;;;;5039148;28;20264;-66
2022/08/27 00:51:52;;;;;;;2.00;1.90;;;21.10;99.90;;;;;;5040170;28;20208;-65
2022/08/27 00:54:20;;;;;;;2.10;2.00;;;21.10;99.90;;;;;;5045807;28;20207;-66
2022/08/27 00:56:47;;;;;;;2.00;1.90;;;21.10;99.90;;;;;;5046150;28;20199;-66
2022/08/27 00:59:17;;;;;;;1.90;1.80;;;21.10;99.90;;;;;;5050294;28;20228;-66
2022/08/27 01:04:27;;;;;;;2.03;1.93;;;21.00;99.90;;;;;;5046394;28;20269;-65
2022/08/27 01:06:56;;;;;;;2.10;2.00;;;21.10;99.90;;;;;;5039312;28;20292;-66
2022/08/27 01:09:23;;;;;;;1.90;1.80;;;21.10;99.90;;;;;;5042343;28;20217;-65
2022/08/27 01:11:51;;;;;;;1.93;1.83;;;21.10;99.90;;;;;;5040268;28;20197;-67
2022/08/27 01:14:18;;;;;;;2.00;1.90;;;21.10;99.90;;;;;;5049463;28;20204;-65
2022/08/27 01:16:50;;;;;;;2.03;1.92;;;21.00;99.90;;;;;;5044664;28;20199;-65
2022/08/27 01:19:26;;;;;;;2.00;1.90;;;21.00;99.90;;;;;;5045641;28;20236;-66
2022/08/27 01:22:00;;;;;;;2.20;2.10;;;21.00;99.90;;;;;;5045062;28;20206;-65
2022/08/27 01:24:36;;;;;;;2.05;1.95;;;21.00;99.90;;;;;;5062413;28;20220;-65
2022/08/27 01:27:07;;;;;;;1.90;1.80;;;21.10;99.90;;;;;;5050691;28;20753;-65
2022/08/27 01:29:34;;;;;;;1.90;1.80;;;21.10;99.90;;;;;;5058332;28;20228;-65
2022/08/27 01:32:08;;;;;;;2.00;1.90;;;21.00;99.90;;;;;;5050836;28;20204;-65
2022/08/27 01:34:35;;;;;;;2.20;2.10;;;21.00;99.90;;;;;;5056335;28;20686;-68
2022/08/27 01:37:04;;;;;;;2.30;2.20;;;20.90;99.90;;;;;;5058706;28;20232;-65
2022/08/27 01:39:31;;;;;;;2.37;2.27;;;20.90;99.90;;;;;;5055030;28;20222;-65
2022/08/27 01:42:06;;;;;;;2.00;1.90;;;20.90;99.90;;;;;;5069692;28;20206;-65
2022/08/27 01:44:42;;;;;;;2.00;1.90;;;20.90;99.90;;;;;;5058315;28;20328;-66
2022/08/27 01:47:09;;;;;;;2.20;2.10;;;20.80;99.90;;;;;;5066019;28;20314;-66
2022/08/27 01:49:36;;;;;;;1.90;1.80;;;20.70;99.90;;;;;;5066766;28;20589;-66
2022/08/27 01:52:04;;;;;;;1.93;1.83;;;20.70;99.90;;;;;;5065761;28;20199;-66
2022/08/27 01:54:31;;;;;;;1.93;1.83;;;20.80;99.90;;;;;;5054735;28;20217;-67
2022/08/27 01:56:58;;;;;;;2.17;1.97;;;20.80;99.90;;;;;;5065648;28;20207;-67
2022/08/27 01:59:26;;;;;;;2.10;2.00;;;20.90;99.90;;;;;;5059874;28;20224;-66
2022/08/27 02:01:55;;;;;;;2.13;2.03;;;20.90;99.90;;;;;;5057728;28;20223;-67
2022/08/27 02:04:23;;;;;;;2.10;2.00;;;20.90;99.90;;;;;;5058024;28;20218;-67
2022/08/27 02:06:50;;;;;;;2.00;1.90;;;20.90;99.90;;;;;;5045649;28;20212;-66
2022/08/27 02:09:16;;;;;;;2.00;1.90;;;20.90;99.90;;;;;;5043981;28;20223;-67
2022/08/27 02:11:43;;;;;;;2.50;2.40;;;20.80;99.90;;;;;;5053425;28;20232;-65
2022/08/27 02:14:10;;;;;;;2.20;2.10;;;20.80;99.90;;;;;;5053026;28;20651;-67
2022/08/27 02:16:39;;;;;;;2.20;2.10;;;20.80;99.90;;;;;;5049686;28;20216;-69
2022/08/27 02:19:06;;;;;;;2.17;2.08;;;20.90;99.90;;;;;;5054789;28;20398;-67
2022/08/27 02:21:33;;;;;;;2.03;1.92;;;20.80;99.90;;;;;;5057279;28;20267;-68
2022/08/27 02:24:00;;;;;;;2.10;2.00;;;20.80;99.90;;;;;;5048266;28;20214;-65
2022/08/27 02:26:27;;;;;;;2.03;1.93;;;20.90;99.90;;;;;;5047296;28;20296;-67
2022/08/27 02:28:54;;;;;;;2.20;2.10;;;20.90;99.90;;;;;;5048316;28;20230;-66
2022/08/27 02:31:22;;;;;;;1.85;1.77;;;20.90;99.90;;;;;;5046420;28;20211;-66
2022/08/27 02:33:51;;;;;;;2.00;1.90;;;20.80;99.90;;;;;;5058607;28;20212;-65
2022/08/27 02:36:18;;;;;;;2.00;1.90;;;20.90;99.90;;;;;;5055867;28;20304;-66
2022/08/27 02:38:46;;;;;;;2.10;2.00;;;20.90;99.90;;;;;;5044774;28;20228;-68
2022/08/27 02:41:15;;;;;;;2.00;1.90;;;20.90;99.90;;;;;;5056049;28;20215;-66
2022/08/27 02:43:42;;;;;;;2.17;2.08;;;20.90;99.90;;;;;;5044606;28;20200;-67
2022/08/27 02:46:10;;;;;;;2.17;2.08;;;20.90;99.90;;;;;;5048276;28;20210;-68
2022/08/27 02:48:37;;;;;;;1.93;1.83;;;20.90;99.90;;;;;;5048929;28;20318;-66
2022/08/27 02:51:06;;;;;;;1.90;1.80;;;21.00;99.90;;;;;;5056025;28;20347;-68
2022/08/27 02:53:35;;;;;;;2.10;2.00;;;21.00;99.90;;;;;;5052017;28;20208;-66
2022/08/27 02:56:02;;;;;;;1.98;1.88;;;21.00;99.90;;;;;;5058943;28;20207;-67
2022/08/27 02:58:29;;;;;;;2.10;2.00;;;21.00;99.90;;;;;;5055387;28;20323;-66
2022/08/27 03:00:56;;;;;;;2.10;2.00;;;21.00;99.90;;;;;;5057567;28;20222;-67
2022/08/27 03:03:23;;;;;;;2.10;2.00;;;21.00;99.90;;;;;;5055406;28;20207;-69
2022/08/27 03:05:51;;;;;;;2.10;2.00;;;21.00;99.90;;;;;;5066398;28;20231;-66
2022/08/27 03:08:19;;;;;;;2.27;2.17;;;21.10;99.90;;;;;;5063211;28;20200;-67
2022/08/27 03:10:46;;;;;;;2.17;2.08;;;21.00;99.90;;;;;;5067433;28;20672;-66
2022/08/27 03:13:13;;;;;;;2.10;2.00;;;21.00;99.90;;;;;;5064370;28;20195;-68
2022/08/27 03:15:40;;;;;;;2.20;2.10;;;21.00;99.90;;;;;;5069258;28;20286;-66
2022/08/27 03:18:18;;;;;;;2.30;2.10;;;20.90;99.90;;;;;;5071519;28;20210;-67
2022/08/27 03:20:48;;;;;;;2.10;2.00;;;21.00;99.90;;;;;;5063706;28;20204;-67
2022/08/27 03:23:16;;;;;;;2.10;2.00;;;21.00;99.90;;;;;;5064585;28;20663;-67
2022/08/27 03:25:48;;;;;;;2.40;2.30;;;21.10;99.90;;;;;;5064706;28;20799;-68
2022/08/27 03:28:16;;;;;;;2.30;2.20;;;21.00;99.90;;;;;;5061153;28;20196;-67
2022/08/27 03:30:44;;;;;;;2.25;2.15;;;21.00;99.90;;;;;;5066136;28;20242;-65
2022/08/27 03:33:12;;;;;;;2.63;2.50;;;21.00;99.90;;;;;;5063330;28;20659;-65
2022/08/27 03:35:39;;;;;;;2.30;2.20;;;21.00;99.90;;;;;;5058521;28;20207;-65
2022/08/27 03:38:06;;;;;;;2.40;2.30;;;21.00;99.90;;;;;;5060540;28;20608;-65
2022/08/27 03:40:32;;;;;;;2.50;2.40;;;21.10;99.90;;;;;;5058435;28;20262;-65
2022/08/27 03:43:00;;;;;;;2.43;2.33;;;21.10;99.90;;;;;;5062765;28;20209;-65
2022/08/27 03:45:27;;;;;;;2.40;2.30;;;21.10;99.90;;;;;;5051116;28;20626;-65
2022/08/27 03:47:54;;;;;;;2.57;2.47;;;21.10;99.90;;;;;;5050852;28;20750;-64
2022/08/27 03:50:21;;;;;;;2.60;2.50;;;21.20;99.90;;;;;;5053570;28;20877;-66
2022/08/27 03:52:48;;;;;;;2.55;2.45;;;21.20;99.90;;;;;;5051610;28;20214;-66
2022/08/27 03:55:15;;;;;;;2.90;2.80;;;21.20;99.90;;;;;;5050796;28;20693;-66
2022/08/27 03:57:42;;;;;;;2.57;2.47;;;21.20;99.90;;;;;;5051355;28;20200;-66
2022/08/27 04:00:12;;;;;;;2.17;2.07;;;21.20;99.90;;;;;;5049336;28;20277;-65
2022/08/27 04:02:40;;;;;;;2.40;2.30;;;21.20;99.90;;;;;;5053345;28;20665;-66
2022/08/27 04:05:09;;;;;;;2.10;2.00;;;21.20;99.90;;;;;;5051877;28;20303;-66
2022/08/27 04:07:36;;;;;;;2.30;2.20;;;21.20;99.90;;;;;;5051368;28;20211;-66
2022/08/27 04:10:03;;;;;;;2.10;2.00;;;21.20;99.90;;;;;;5057390;28;20594;-66
2022/08/27 04:12:30;;;;;;;2.17;2.07;;;21.10;99.90;;;;;;5051358;28;20670;-65
2022/08/27 04:14:57;;;;;;;2.17;2.07;;;21.10;99.90;;;;;;5055854;28;20666;-65
2022/08/27 04:17:25;;;;;;;2.17;2.08;;;21.00;99.90;;;;;;5051145;28;20291;-65
2022/08/27 04:19:53;;;;;;;2.40;2.30;;;21.00;99.90;;;;;;5049088;28;20331;-65
2022/08/27 04:22:20;;;;;;;2.20;2.10;;;21.00;99.90;;;;;;5051143;28;20208;-65
2022/08/27 04:24:47;;;;;;;2.40;2.30;;;21.00;99.90;;;;;;5052220;28;20258;-65
2022/08/27 04:27:15;;;;;;;2.40;2.30;;;21.00;99.90;;;;;;5051064;28;20232;-65
2022/08/27 04:29:43;;;;;;;2.27;2.10;;;21.00;99.90;;;;;;5049319;28;20269;-66
2022/08/27 04:32:10;;;;;;;2.25;2.15;;;20.90;99.90;;;;;;5046879;28;20208;-67
2022/08/27 04:34:38;;;;;;;2.53;2.38;;;20.90;99.90;;;;;;5049745;28;20210;-67
2022/08/27 04:37:05;;;;;;;2.10;2.00;;;20.90;99.90;;;;;;5042926;28;20199;-65
2022/08/27 04:39:32;;;;;;;2.30;2.20;;;20.80;99.90;;;;;;5049115;28;20232;-66
2022/08/27 04:42:00;;;;;;;2.30;2.20;;;20.80;99.90;;;;;;5051784;28;20417;-65
2022/08/27 04:44:30;;;;;;;2.50;2.40;;;20.80;99.90;;;;;;5049491;28;20243;-66
2022/08/27 04:47:04;;;;;;;2.47;2.33;;;20.80;99.90;;;;;;5049316;28;20206;-65
2022/08/27 04:49:32;;;;;;;2.60;2.40;;;20.80;99.90;;;;;;5049551;28;20227;-65
2022/08/27 04:52:00;;;;;;;2.27;2.17;;;20.90;99.90;;;;;;5058118;28;20568;-66
2022/08/27 04:54:27;;;;;;;2.90;2.80;;;20.90;99.90;;;;;;5049647;28;20258;-66
2022/08/27 04:56:54;;;;;;;2.60;2.50;;;20.90;99.90;;;;;;5053123;28;20204;-67
2022/08/27 04:59:21;;;;;;;2.73;2.60;;;20.80;99.90;;;;;;5054419;28;20589;-66
2022/08/27 05:01:48;;;;;;;2.70;2.50;;;20.80;99.90;;;;;;5055937;28;20200;-65
2022/08/27 05:04:17;;;;;;;2.57;2.47;;;20.80;99.90;;;;;;5058489;28;20206;-65
2022/08/27 05:06:44;;;;;;;2.30;2.20;;;20.80;99.90;;;;;;5052537;28;20601;-66
2022/08/27 05:09:14;;;;;;;2.37;2.27;;;20.80;99.90;;;;;;5052504;28;20302;-66
2022/08/27 05:11:41;;;;;;;2.20;2.10;;;20.80;99.90;;;;;;5051883;28;20250;-65
2022/08/27 05:14:12;;;;;;;2.27;2.17;;;20.90;99.90;;;;;;5051275;28;20218;-66
2022/08/27 05:16:39;;;;;;;2.50;2.40;;;20.90;99.90;;;;;;5050588;28;20238;-66
2022/08/27 05:19:09;;;;;;;2.53;2.30;;;21.00;99.90;;;;;;5055279;28;20232;-64
2022/08/27 05:21:38;;;;;;;1.90;1.80;;;21.00;99.90;;;;;;5058761;28;20234;-66
2022/08/27 05:24:07;;;;;;;2.10;2.00;;;21.00;99.90;;;;;;5050772;28;20283;-65
2022/08/27 05:26:36;;;;;;;2.27;2.17;;;21.00;99.90;;;;;;5051210;28;20206;-66
2022/08/27 05:29:05;;;;;;;2.10;2.00;;;21.10;99.90;;;;;;5050951;28;20224;-66
2022/08/27 05:31:32;;;;;;;2.00;1.90;;;21.10;99.90;;;;;;5056241;28;20204;-67
2022/08/27 05:34:00;;;;;;;2.13;2.03;;;21.10;99.90;;;;;;5049000;28;20306;-66
2022/08/27 05:36:29;;;;;;;1.97;1.87;;;21.20;99.90;;;;;;5051232;28;20287;-66
2022/08/27 05:38:58;;;;;;;2.10;2.00;;;21.30;99.90;;;;;;5056012;28;20237;-65
2022/08/27 05:41:28;;;;;;;2.38;2.17;;;21.30;99.90;;;;;;5051130;28;20212;-65
2022/08/27 05:44:00;;;;;;;1.93;1.83;;;21.30;99.90;;;;;;5048480;28;20643;-66
2022/08/27 05:46:28;;;;;;;2.40;2.30;;;21.30;99.90;;;;;;5050345;28;20258;-66
2022/08/27 05:48:57;;;;;;;2.20;2.10;;;21.30;99.90;;;;;;5047436;28;20232;-65
2022/08/27 05:51:27;;;;;;;2.40;2.30;;;21.30;99.90;;;;;;5043133;28;20204;-65
2022/08/27 05:53:59;;;;;;;2.10;2.00;;;21.30;99.90;;;;;;5044810;28;20587;-65
2022/08/27 05:56:28;;;;;;;2.20;2.10;;;21.30;99.90;;;;;;5037454;28;20214;-65
2022/08/27 06:01:43;;;;;;;2.20;2.10;;;21.40;99.90;;;;;;5051580;28;20218;-65
2022/08/27 06:04:11;;;;;;;2.50;2.40;;;21.40;99.90;;;;;;5053021;28;20201;-65
2022/08/27 06:06:40;;;;;;;2.30;2.20;;;21.50;99.90;;;;;;5054345;28;20287;-66
2022/08/27 06:09:08;;;;;;;2.10;2.00;;;21.50;99.90;;;;;;5046066;28;20227;-66
2022/08/27 06:11:35;;;;;;;2.40;2.30;;;21.50;99.90;;;;;;5055151;28;20314;-65
2022/08/27 06:14:03;;;;;;;2.40;2.30;;;21.50;99.90;;;;;;5051997;28;20204;-65
2022/08/27 06:16:30;;;;;;;2.40;2.30;;;21.50;99.90;;;;;;5050268;28;20295;-65
2022/08/27 06:18:57;;;;;;;2.13;2.03;;;21.50;99.90;;;;;;5059054;28;20228;-65
2022/08/27 06:21:25;;;;;;;2.37;2.27;;;21.50;99.90;;;;;;5055329;28;20214;-65
2022/08/27 06:23:53;;;;;;;2.28;2.17;;;21.50;99.90;;;;;;5054890;28;20597;-66
2022/08/27 06:26:21;;;;;;;2.97;2.78;;;21.50;99.90;;;;;;5054685;28;20207;-65
2022/08/27 06:28:49;;;;;;;2.58;2.47;;;21.50;99.90;;;;;;5051256;28;20315;-65
2022/08/27 06:31:21;;;;;;;2.43;2.33;;;21.50;99.90;;;;;;5061261;28;20277;-65
2022/08/27 06:33:50;;;;;;;2.40;2.30;;;21.40;99.90;;;;;;5054596;28;20253;-64
2022/08/27 06:36:19;;;;;;;2.70;2.60;;;21.40;99.90;;;;;;5054872;28;20311;-67
2022/08/27 06:38:47;;;;;;;2.70;2.60;;;21.50;99.90;;;;;;5055095;28;20221;-67
2022/08/27 06:41:16;;;;;;;3.10;2.90;;;21.40;99.90;;;;;;5052672;28;20235;-65
2022/08/27 06:43:43;;;;;;;3.00;2.80;;;21.40;99.90;;;;;;5055668;28;20290;-66
2022/08/27 06:46:13;;;;;;;2.97;2.87;;;21.40;99.90;;;;;;5051605;28;20294;-65
2022/08/27 06:48:43;;;;;;;3.00;2.90;;;21.40;99.90;;;;;;5051211;28;20232;-65
2022/08/27 06:51:13;;;;;;;2.92;2.72;;;21.40;99.90;;;;;;5055922;28;20219;-66
2022/08/27 06:53:40;;;;;;;3.10;2.90;;;21.50;99.90;;;;;;5071300;28;20250;-66
2022/08/27 06:56:07;;;;;;;3.05;2.95;;;21.50;99.90;;;;;;5057773;28;20235;-65
2022/08/27 06:58:35;;;;;;;3.30;3.10;;;21.40;99.90;;;;;;5050242;28;20228;-65
2022/08/27 07:01:02;;;;;;;2.70;2.58;;;21.50;99.90;;;;;;5046062;28;20307;-64
2022/08/27 07:03:29;;;;;;;2.50;2.40;;;21.60;99.90;;;;;;5046684;28;20291;-66
2022/08/27 07:06:04;;;;;;;3.00;2.90;;;21.70;99.90;;;;;;5053216;28;20210;-66
2022/08/27 07:08:31;;;;;;;2.42;2.33;;;21.80;99.90;;;;;;5046102;28;20239;-66
2022/08/27 07:10:58;;;;;;;2.63;2.53;;;21.80;99.90;;;;;;5044265;28;20278;-66
2022/08/27 07:13:24;;;;;;;2.60;2.50;;;21.90;99.90;;;;;;5059996;28;20238;-65
2022/08/27 07:15:51;;;;;;;3.00;2.90;;;22.00;99.90;;;;;;5046547;28;20215;-65
2022/08/27 07:18:18;;;;;;;2.53;2.43;;;22.10;99.90;;;;;;5049708;28;20212;-66
2022/08/27 07:20:45;;;;;;;2.40;2.30;;;22.10;99.90;;;;;;5056626;28;20254;-66
2022/08/27 07:23:13;;;;;;;2.28;2.17;;;22.10;99.90;;;;;;5060077;28;20204;-65
2022/08/27 07:25:41;;;;;;;2.80;2.70;;;22.20;99.90;;;;;;5059763;28;20211;-67
2022/08/27 07:28:08;;;;;;;3.47;3.28;;;22.20;99.90;;;;;;5059237;28;20200;-65
2022/08/27 07:30:36;;;;;;;3.20;3.00;;;22.20;99.90;;;;;;5052588;28;20210;-65
2022/08/27 07:33:03;;;;;;;3.13;3.00;;;22.10;99.90;;;;;;5067101;28;20678;-65
2022/08/27 07:35:30;;;;;;;3.43;3.23;;;22.10;99.90;;;;;;5067472;28;20206;-66
2022/08/27 07:37:57;;;;;;;3.40;3.20;;;22.30;99.90;;;;;;5067320;28;20208;-64
2022/08/27 07:40:26;;;;;;;3.10;3.00;;;22.20;99.90;;;;;;5065304;28;20219;-65
2022/08/27 07:45:45;;;;;;;3.38;3.17;;;22.10;99.90;;;;;;5011886;28;20198;-64
2022/08/27 07:48:12;;;;;;;3.47;3.27;;;22.10;99.90;;;;;;5064272;28;20204;-66
2022/08/27 07:50:39;;;;;;;2.70;2.60;;;22.10;99.90;;;;;;5064097;28;20200;-65
2022/08/27 07:53:06;;;;;;;3.10;3.00;;;22.10;99.90;;;;;;5067214;28;20201;-65
2022/08/27 07:55:36;;;;;;;3.83;3.63;;;22.10;99.90;;;;;;5066418;28;20199;-65
2022/08/27 07:58:03;;;;;;;3.90;3.63;;;22.20;99.90;;;;;;5066024;28;20209;-66
2022/08/27 08:00:30;;;;;;;3.08;2.97;;;22.20;99.90;;;;;;5066807;28;20227;-66
2022/08/27 08:02:57;;;;;;;3.30;3.10;;;22.20;99.90;;;;;;5071377;28;20249;-66
2022/08/27 08:05:24;;;;;;;3.87;3.67;;;22.40;99.90;;;;;;5066585;28;20253;-66
2022/08/27 08:07:51;;;;;;;3.38;3.17;;;22.40;99.90;;;;;;5068919;28;20238;-67
2022/08/27 08:10:21;;;;;;;2.90;2.80;;;22.40;99.90;;;;;;5077641;28;20228;-66
2022/08/27 08:12:50;;;;;;;3.28;3.08;;;22.50;99.90;;;;;;5076138;28;20227;-66
2022/08/27 08:15:18;;;;;;;3.63;3.42;;;22.70;99.90;;;;;;5076714;28;20196;-65
2022/08/27 08:17:45;;;;;;;3.58;3.38;;;22.70;99.90;;;;;;5074695;28;20235;-67
2022/08/27 08:20:14;;;;;;;3.60;3.40;;;22.70;99.90;;;;;;5067413;28;20218;-65
2022/08/27 08:22:42;;;;;;;3.23;3.03;;;22.60;99.90;;;;;;5061506;28;20678;-66
2022/08/27 08:25:09;;;;;;;3.40;3.20;;;22.70;99.90;;;;;;5061027;28;20608;-66
2022/08/27 08:27:36;;;;;;;3.53;3.33;;;22.60;99.90;;;;;;5058983;28;20287;-66
2022/08/27 08:30:05;;;;;;;3.17;2.97;;;22.70;99.90;;;;;;5061767;28;20218;-66
2022/08/27 08:32:32;;;;;;;2.93;2.83;;;22.90;99.90;;;;;;5056591;28;20208;-66
2022/08/27 08:34:59;;;;;;;3.90;3.70;;;23.00;99.90;;;;;;5045540;28;20698;-66
2022/08/27 08:37:26;;;;;;;3.15;2.95;;;23.10;99.90;;;;;;5054674;28;20625;-67
2022/08/27 08:39:54;;;;;;;3.45;3.25;;;23.10;99.90;;;;;;5051358;28;20251;-66
2022/08/27 08:42:29;;;;;;;3.33;3.13;;;23.10;99.90;;;;;;5053362;28;20595;-67
2022/08/27 08:44:59;;;;;;;3.20;3.00;;;23.10;99.90;;;;;;5057681;28;20210;-65
2022/08/27 08:47:31;;;;;;;3.50;3.30;;;23.10;99.90;;;;;;5053165;28;20235;-67
2022/08/27 08:50:04;;;;;;;3.67;3.47;;;23.10;99.90;;;;;;5047922;28;20231;-65
2022/08/27 08:52:43;;;;;;;3.50;3.30;;;23.20;99.90;;;;;;5059283;28;20669;-66
2022/08/27 08:55:25;;;;;;;3.72;3.53;;;23.20;99.90;;;;;;5054253;28;20215;-67
2022/08/27 08:58:12;;;;;;;3.72;3.53;;;23.10;99.90;;;;;;5054195;28;20298;-67
2022/08/27 09:00:40;;;;;;;3.40;3.20;;;23.30;99.90;;;;;;5057288;28;20561;-66
2022/08/27 09:03:11;;;;;;;3.60;3.40;;;23.40;99.90;;;;;;5065299;28;20215;-66
2022/08/27 09:05:40;;;;;;;3.40;3.30;;;23.50;99.90;;;;;;5064951;28;20207;-67
2022/08/27 09:08:14;;;;;;;3.80;3.60;;;23.50;99.90;;;;;;5062896;28;20203;-66
2022/08/27 09:10:44;;;;;;;3.60;3.40;;;23.50;99.90;;;;;;5060516;28;20282;-67
2022/08/27 09:13:22;;;;;;;4.10;3.90;;;23.50;99.90;;;;;;5063758;28;20228;-65
2022/08/27 09:15:51;;;;;;;3.63;3.43;;;23.30;99.90;;;;;;5059186;28;20258;-66
2022/08/27 09:18:19;;;;;;;3.80;3.60;;;23.30;99.90;;;;;;5059919;28;20212;-66
2022/08/27 09:20:49;;;;;;;4.40;4.13;;;23.40;99.90;;;;;;5063378;28;20220;-67
2022/08/27 09:23:24;;;;;;;3.67;3.47;;;23.30;99.90;;;;;;5060062;28;20773;-67
2022/08/27 09:25:50;;;;;;;3.67;3.47;;;23.40;99.90;;;;;;5063790;28;20219;-66
2022/08/27 09:31:14;;;;;;;3.88;3.67;;;23.50;99.90;;;;;;5016071;28;20192;-66
2022/08/27 09:33:43;;;;;;;3.90;3.70;;;23.50;99.90;;;;;;5045321;28;20304;-67
2022/08/27 09:36:14;;;;;;;4.20;3.90;;;23.50;99.90;;;;;;5060495;28;20204;-66
2022/08/27 09:38:51;;;;;;;4.05;3.85;;;23.60;99.90;;;;;;5062875;28;20259;-67
2022/08/27 09:41:23;;;;;;;3.80;3.60;;;23.50;99.90;;;;;;5065998;28;20222;-65
2022/08/27 09:43:58;;;;;;;4.13;3.90;;;23.30;99.90;;;;;;5059718;28;20671;-66
2022/08/27 09:46:27;;;;;;;4.10;3.90;;;23.20;99.90;;;;;;5064777;28;20223;-67
2022/08/27 09:48:55;;;;;;;4.28;4.07;;;23.10;99.90;;;;;;5064241;28;20231;-67
2022/08/27 09:51:25;;;;;;;3.65;3.45;;;23.20;99.90;;;;;;5065236;28;20303;-66
2022/08/27 09:53:55;;;;;;;3.80;3.60;;;23.20;99.90;;;;;;5060089;28;20699;-67
2022/08/27 09:56:27;;;;;;;4.50;4.30;;;23.20;99.90;;;;;;5051046;28;20204;-66
2022/08/27 09:58:59;;;;;;;4.25;4.05;;;23.00;99.90;;;;;;5053675;28;20224;-66
2022/08/27 10:01:29;;;;;;;4.28;3.97;;;22.90;99.90;;;;;;5058119;28;20314;-65
2022/08/27 10:04:06;;;;;;;4.05;3.85;;;22.90;99.90;;;;;;5054039;28;20214;-66
2022/08/27 10:06:33;;;;;;;5.03;4.72;;;22.90;99.90;;;;;;5054494;28;20285;-65
2022/08/27 10:09:07;;;;;;;4.78;4.47;;;22.70;99.90;;;;;;5057452;28;20682;-67
2022/08/27 10:11:37;;;;;;;4.43;4.13;;;22.50;99.90;;;;;;5054002;28;20288;-67
2022/08/27 10:14:13;;;;;;;4.50;4.30;;;22.40;99.90;;;;;;5050315;28;20208;-66
2022/08/27 10:16:55;;;;;;;3.97;3.77;;;22.50;99.90;;;;;;5054845;28;20218;-66
2022/08/27 10:19:37;;;;;;;3.97;3.78;;;22.40;99.90;;;;;;5051826;28;20220;-65
2022/08/27 10:22:12;;;;;;;4.25;4.05;;;22.40;99.90;;;;;;5052429;28;20251;-67
2022/08/27 10:24:48;;;;;;;4.38;4.10;;;22.40;99.90;;;;;;5053150;28;20286;-67
2022/08/27 10:27:24;;;;;;;4.80;4.60;;;22.40;99.90;;;;;;5056789;28;20377;-67
2022/08/27 10:29:58;;;;;;;4.30;4.10;;;22.40;99.90;;;;;;5053042;28;20219;-67
2022/08/27 10:32:45;;;;;;;4.13;3.93;;;22.40;99.90;;;;;;5049123;28;20208;-66
2022/08/27 10:35:18;;;;;;;4.63;4.32;;;22.40;99.90;;;;;;5049455;28;20207;-67
2022/08/27 10:37:51;;;;;;;4.93;4.63;;;22.30;99.90;;;;;;5051597;28;20210;-66
2022/08/27 10:40:24;;;;;;;3.65;3.45;;;22.30;99.90;;;;;;5060947;28;20225;-66
2022/08/27 10:43:08;;;;;;;3.93;3.73;;;22.30;99.90;;;;;;5056632;28;20230;-66
2022/08/27 10:45:45;;;;;;;4.20;4.00;;;22.30;99.90;;;;;;5052350;28;20200;-66
2022/08/27 10:48:23;;;;;;;3.97;3.77;;;22.30;99.90;;;;;;4998887;28;1120156;-66
2022/08/27 10:50:58;;;;;;;3.43;3.23;;;22.20;99.90;;;;;;5046670;28;20674;-67
2022/08/27 10:53:36;;;;;;;3.80;3.60;;;22.20;99.90;;;;;;5050577;28;20204;-66
2022/08/27 10:56:13;;;;;;;5.57;4.28;;;22.20;99.90;;;;;;5049698;28;20291;-66
2022/08/27 10:58:56;;;;;;;3.67;3.47;;;22.30;99.90;;;;;;5046466;28;20228;-67
2022/08/27 11:01:36;;;;;;;3.53;3.33;;;22.30;99.90;;;;;;5049476;28;20224;-68
2022/08/27 11:04:07;;;;;;;3.67;3.47;;;22.20;99.90;;;;;;5048726;28;20290;-67
2022/08/27 11:06:38;;;;;;;3.03;2.93;;;22.20;99.90;;;;;;5055826;28;20210;-67
2022/08/27 11:09:11;;;;;;;3.45;3.25;;;22.30;99.90;;;;;;5058222;28;20243;-68
2022/08/27 11:11:42;;;;;;;3.40;3.20;;;22.30;99.90;;;;;;5060052;28;20669;-65
2022/08/27 11:14:16;;;;;;;3.00;2.80;;;22.40;99.90;;;;;;5061736;28;20257;-67
2022/08/27 11:16:50;;;;;;;2.80;2.70;;;22.40;99.90;;;;;;5062985;28;20230;-67
2022/08/27 11:19:22;;;;;;;2.72;2.63;;;22.40;99.90;;;;;;5061872;28;20285;-67
2022/08/27 11:22:00;;;;;;;2.60;2.50;;;22.50;99.90;;;;;;5063495;28;20219;-66
2022/08/27 11:24:32;;;;;;;2.67;2.58;;;22.50;99.90;;;;;;5061619;28;20242;-66
2022/08/27 11:27:03;;;;;;;2.90;2.80;;;22.50;99.90;;;;;;5046399;28;20287;-65
2022/08/27 11:29:36;;;;;;;2.60;2.50;;;22.50;99.90;;;;;;5048484;28;20224;-66
2022/08/27 11:32:15;;;;;;;2.60;2.50;;;22.40;99.90;;;;;;5052102;28;20284;-67
2022/08/27 11:34:47;;;;;;;2.40;2.30;;;22.50;99.90;;;;;;5050390;28;20625;-67
2022/08/27 11:37:29;;;;;;;2.53;2.42;;;22.60;99.90;;;;;;5052061;28;20214;-66
2022/08/27 11:40:21;;;;;;;2.40;2.30;;;22.50;99.90;;;;;;5052334;28;20228;-65
2022/08/27 11:42:51;;;;;;;2.10;2.00;;;22.50;99.90;;;;;;5040433;28;20600;-66
2022/08/27 11:45:23;;;;;;;2.20;2.10;;;22.60;99.90;;;;;;5042348;28;20291;-67
2022/08/27 11:47:55;;;;;;;2.05;1.95;;;22.70;99.90;;;;;;5047555;28;20199;-66
2022/08/27 11:50:24;;;;;;;2.07;1.97;;;22.70;99.90;;;;;;5047131;28;20307;-66
2022/08/27 11:52:58;;;;;;;2.00;1.90;;;22.80;99.90;;;;;;5036889;28;20211;-66
2022/08/27 11:55:30;;;;;;;2.22;2.13;;;23.10;99.90;;;;;;5048159;28;20238;-66
2022/08/27 11:58:07;;;;;;;2.10;2.00;;;23.00;99.90;;;;;;5050443;28;20239;-66
2022/08/27 12:00:36;;;;;;;2.03;1.92;;;23.00;99.90;;;;;;5052386;28;20222;-67
2022/08/27 12:03:07;;;;;;;2.10;2.00;;;23.00;99.90;;;;;;5056436;28;20655;-68
2022/08/27 12:05:38;;;;;;;2.08;1.98;;;23.00;99.90;;;;;;5056626;28;20569;-68
2022/08/27 12:08:28;;;;;;;2.08;1.98;;;23.00;99.90;;;;;;5060809;28;20258;-66
2022/08/27 12:11:19;;;;;;;2.00;1.90;;;23.10;99.90;;;;;;5055591;28;20217;-66
2022/08/27 12:13:55;;;;;;;1.92;1.83;;;23.30;99.90;;;;;;5054768;28;20209;-66
2022/08/27 12:16:32;;;;;;;1.95;1.85;;;23.60;99.90;;;;;;5063637;28;20211;-65
2022/08/27 12:19:18;;;;;;;2.00;1.90;;;23.90;99.90;;;;;;5065726;28;20219;-66
2022/08/27 12:21:55;;;;;;;2.75;1.80;;;24.00;99.90;;;;;;5061756;28;20271;-67
2022/08/27 12:24:43;;;;;;;1.50;1.50;;;24.20;99.90;;;;;;5063049;28;20213;-67
2022/08/27 12:27:33;;;;;;;1.80;1.70;;;24.60;99.90;;;;;;5061848;28;20209;-67
2022/08/27 12:30:03;;;;;;;1.90;1.80;;;25.00;99.90;;;;;;5068449;28;20253;-67
2022/08/27 12:32:33;;;;;;;1.92;1.83;;;25.00;99.90;;;;;;5064826;28;20555;-66
2022/08/27 12:35:09;;;;;;;1.63;1.63;;;25.10;99.90;;;;;;5053041;28;20295;-67
2022/08/27 12:37:38;;;;;;;1.73;1.63;;;25.30;99.90;;;;;;5065050;28;20226;-67
2022/08/27 12:40:14;;;;;;;1.70;1.70;;;25.60;99.90;;;;;;5063815;28;20312;-66
2022/08/27 12:42:41;;;;;;;1.60;1.60;;;25.90;99.90;;;;;;5066371;28;20215;-66
2022/08/27 12:45:17;;;;;;;1.48;1.48;;;26.00;99.90;;;;;;5066568;28;20203;-66
2022/08/27 12:47:45;;;;;;;1.58;1.50;;;26.20;99.90;;;;;;5063936;28;20199;-67
2022/08/27 12:50:12;;;;;;;1.50;1.50;;;26.30;99.90;;;;;;5064252;28;20759;-66
2022/08/27 12:52:55;;;;;;;1.23;1.23;;;26.40;99.90;;;;;;5061523;28;20195;-67
2022/08/27 12:55:36;;;;;;;1.30;1.30;;;26.40;99.90;;;;;;5066566;28;20216;-67
2022/08/27 12:58:11;;;;;;;1.45;1.45;;;26.50;99.90;;;;;;5059399;28;20602;-66
2022/08/27 13:01:02;;;;;;;1.67;1.60;;;26.60;99.90;;;;;;5058139;28;20631;-67
2022/08/27 13:03:35;;;;;;;1.60;1.50;;;26.60;99.90;;;;;;5050815;28;20210;-67
2022/08/27 13:06:02;;;;;;;1.20;1.20;;;26.70;99.90;;;;;;5062555;28;20211;-68
2022/08/27 13:08:32;;;;;;;1.27;1.27;;;26.60;99.90;;;;;;5068450;28;20203;-66
2022/08/27 13:11:09;;;;;;;1.17;1.17;;;26.70;99.90;;;;;;5068396;28;20669;-65
2022/08/27 13:13:36;;;;;;;1.05;1.05;;;26.70;99.90;;;;;;5081199;28;20203;-66